Time;durP1;ratioP1;P1;durP2;ratioP2;P2;SDS_P1;SDS_P2;PMS_P1;PMS_P2;Temp;Humidity;BMP_temperature;BMP_pressure;BME280_temperature;BME280_humidity;BME280_pressure;Samples;Min_cycle;Max_cycle;Signal;HPM_P1;HPM_P2
2022/09/21 00:00:50;;;;;;;7.67;3.70;;;11.20;77.10;;;;;;5051117;28;20463;-77
2022/09/21 00:03:20;;;;;;;8.40;3.80;;;11.20;77.10;;;;;;5045664;28;20508;-76
2022/09/21 00:05:48;;;;;;;8.70;4.30;;;11.20;77.00;;;;;;5044238;28;20475;-76
2022/09/21 00:08:16;;;;;;;7.30;3.97;;;11.20;77.00;;;;;;5046617;28;20537;-77
2022/09/21 00:10:49;;;;;;;6.60;3.50;;;11.20;77.00;;;;;;5044339;28;20486;-76
2022/09/21 00:13:18;;;;;;;6.60;3.17;;;11.20;77.00;;;;;;5046234;28;20474;-77
2022/09/21 00:15:46;;;;;;;8.30;4.10;;;11.20;77.10;;;;;;5041180;28;20533;-76
2022/09/21 00:18:14;;;;;;;16.80;4.90;;;11.20;77.10;;;;;;5045266;28;20509;-76
2022/09/21 00:20:43;;;;;;;17.53;5.07;;;11.20;77.10;;;;;;5047386;28;20535;-76
2022/09/21 00:23:11;;;;;;;8.50;4.53;;;11.20;77.10;;;;;;5054713;28;20482;-76
2022/09/21 00:25:39;;;;;;;17.50;6.10;;;11.20;77.20;;;;;;5045921;28;20891;-77
2022/09/21 00:28:07;;;;;;;10.90;6.07;;;11.20;77.30;;;;;;5044168;28;20517;-75
2022/09/21 00:30:34;;;;;;;11.40;5.00;;;11.20;77.40;;;;;;5046337;28;20517;-77
2022/09/21 00:33:02;;;;;;;9.27;4.47;;;11.20;77.50;;;;;;5044572;28;21050;-77
2022/09/21 00:35:30;;;;;;;8.63;5.20;;;11.20;77.60;;;;;;5042856;28;20442;-76
2022/09/21 00:38:02;;;;;;;9.63;5.03;;;11.30;77.70;;;;;;5044045;28;20455;-76
2022/09/21 00:40:31;;;;;;;9.30;4.10;;;11.30;77.80;;;;;;5052429;28;20546;-77
2022/09/21 00:43:16;;;;;;;7.80;4.57;;;11.30;77.90;;;;;;5046908;28;20478;-76
2022/09/21 00:45:48;;;;;;;11.43;4.30;;;11.30;78.00;;;;;;5058275;28;20535;-76
2022/09/21 00:48:16;;;;;;;7.80;3.77;;;11.30;78.00;;;;;;5054477;28;20463;-76
2022/09/21 00:50:49;;;;;;;8.80;4.83;;;11.30;78.00;;;;;;5047432;28;20985;-77
2022/09/21 00:53:18;;;;;;;7.60;4.10;;;11.30;78.10;;;;;;5051583;28;20563;-75
2022/09/21 00:55:50;;;;;;;44.57;5.20;;;11.40;78.10;;;;;;5054665;28;20536;-76
2022/09/21 00:58:24;;;;;;;10.00;4.77;;;11.40;78.00;;;;;;5048831;28;20479;-77
2022/09/21 01:00:52;;;;;;;8.00;4.30;;;11.30;78.00;;;;;;5048982;28;20881;-77
2022/09/21 01:03:20;;;;;;;20.00;4.87;;;11.30;78.10;;;;;;5050782;28;20977;-76
2022/09/21 01:05:48;;;;;;;7.70;4.03;;;11.30;78.10;;;;;;5047984;28;20455;-77
2022/09/21 01:08:19;;;;;;;7.90;4.10;;;11.30;78.10;;;;;;5050535;28;20458;-77
2022/09/21 01:11:07;;;;;;;8.37;4.53;;;11.30;78.20;;;;;;5047609;28;20501;-77
2022/09/21 01:13:46;;;;;;;17.13;4.37;;;11.20;78.30;;;;;;5052067;28;20470;-75
2022/09/21 01:16:19;;;;;;;11.83;4.43;;;11.20;78.30;;;;;;5043996;28;20564;-77
2022/09/21 01:18:53;;;;;;;12.53;5.10;;;11.20;78.20;;;;;;5047957;28;21220;-77
2022/09/21 01:21:23;;;;;;;13.50;4.30;;;11.20;78.20;;;;;;5047071;28;20462;-77
2022/09/21 01:24:17;;;;;;;8.70;4.50;;;11.20;78.30;;;;;;5048359;28;20527;-75
2022/09/21 01:27:08;;;;;;;18.77;4.07;;;11.10;78.40;;;;;;5046628;28;20475;-76
2022/09/21 01:29:43;;;;;;;30.30;5.67;;;11.10;78.50;;;;;;5048220;28;20451;-76
2022/09/21 01:32:16;;;;;;;8.80;3.83;;;11.20;78.50;;;;;;5054443;28;20450;-76
2022/09/21 01:34:49;;;;;;;9.20;4.47;;;11.10;78.40;;;;;;5046121;28;20608;-75
2022/09/21 01:37:21;;;;;;;8.47;4.10;;;11.10;78.50;;;;;;5049614;28;20583;-76
2022/09/21 01:39:54;;;;;;;7.00;3.83;;;11.10;78.70;;;;;;5052759;28;20490;-77
2022/09/21 01:42:25;;;;;;;6.77;3.47;;;11.10;78.70;;;;;;5047745;28;20817;-75
2022/09/21 01:44:58;;;;;;;6.70;3.53;;;11.10;78.70;;;;;;5058317;28;20475;-76
2022/09/21 01:47:30;;;;;;;9.80;3.33;;;11.10;78.70;;;;;;5047790;28;20470;-76
2022/09/21 01:50:01;;;;;;;11.90;4.33;;;11.10;78.70;;;;;;5047610;28;21326;-77
2022/09/21 01:52:35;;;;;;;6.90;4.00;;;11.10;78.70;;;;;;5050645;28;20446;-76
2022/09/21 01:55:07;;;;;;;6.90;4.03;;;11.10;78.70;;;;;;5047175;28;20482;-77
2022/09/21 01:57:42;;;;;;;7.13;3.80;;;11.10;78.70;;;;;;5047189;28;20964;-77
2022/09/21 02:00:12;;;;;;;10.00;3.50;;;11.10;78.90;;;;;;5057819;28;20463;-77
2022/09/21 02:02:49;;;;;;;7.97;4.50;;;11.10;78.90;;;;;;5052191;28;20560;-77
2022/09/21 02:05:19;;;;;;;10.87;3.53;;;11.10;78.70;;;;;;5044634;28;20500;-75
2022/09/21 02:07:49;;;;;;;10.73;3.27;;;11.00;78.70;;;;;;5046424;28;20948;-76
2022/09/21 02:10:21;;;;;;;5.80;3.50;;;11.00;78.80;;;;;;5047858;28;20604;-75
2022/09/21 02:12:55;;;;;;;5.70;3.00;;;11.00;78.80;;;;;;5046928;28;20497;-77
2022/09/21 02:15:31;;;;;;;6.20;3.23;;;11.00;78.90;;;;;;5045692;28;20501;-77
2022/09/21 02:18:06;;;;;;;6.30;3.33;;;11.00;78.90;;;;;;5046380;28;20495;-76
2022/09/21 02:20:41;;;;;;;6.23;3.27;;;11.00;78.90;;;;;;5046826;28;20454;-76
2022/09/21 02:23:18;;;;;;;6.10;3.17;;;10.90;78.90;;;;;;5044403;28;20470;-76
2022/09/21 02:25:52;;;;;;;6.80;3.37;;;10.90;79.00;;;;;;5043722;28;21191;-77
2022/09/21 02:28:28;;;;;;;5.40;3.23;;;10.90;79.00;;;;;;5043781;28;20617;-76
2022/09/21 02:31:12;;;;;;;6.37;3.70;;;10.90;79.00;;;;;;5047726;28;20801;-75
2022/09/21 02:33:47;;;;;;;5.90;3.40;;;11.00;79.00;;;;;;5043638;28;20478;-76
2022/09/21 02:36:29;;;;;;;5.00;3.10;;;10.90;79.00;;;;;;5046811;28;20455;-75
2022/09/21 02:39:04;;;;;;;6.43;3.67;;;10.90;79.00;;;;;;5046613;28;20552;-75
2022/09/21 02:41:39;;;;;;;6.50;3.50;;;10.90;79.00;;;;;;5044365;28;20907;-77
2022/09/21 02:44:12;;;;;;;7.17;3.60;;;10.90;79.00;;;;;;5043434;28;21170;-77
2022/09/21 02:46:47;;;;;;;7.30;3.80;;;10.90;79.00;;;;;;5045118;28;20532;-77
2022/09/21 02:49:19;;;;;;;17.50;4.13;;;11.00;78.90;;;;;;5049358;28;20528;-76
2022/09/21 02:51:51;;;;;;;7.67;3.90;;;10.90;78.90;;;;;;5044230;28;20494;-77
2022/09/21 02:54:24;;;;;;;6.60;3.97;;;10.90;78.90;;;;;;5043735;28;20514;-76
2022/09/21 02:56:54;;;;;;;7.30;3.33;;;10.90;78.90;;;;;;5046362;28;20506;-76
2022/09/21 02:59:22;;;;;;;7.03;4.00;;;10.90;78.90;;;;;;5049140;28;20470;-77
2022/09/21 03:01:52;;;;;;;5.70;3.40;;;10.90;78.90;;;;;;5045502;28;20510;-77
2022/09/21 03:04:20;;;;;;;7.13;3.70;;;10.90;78.90;;;;;;5036563;28;20482;-77
2022/09/21 03:06:48;;;;;;;11.60;3.90;;;10.90;78.90;;;;;;5048242;28;20542;-76
2022/09/21 03:09:16;;;;;;;8.70;4.00;;;10.90;78.90;;;;;;5047065;28;20451;-76
2022/09/21 03:11:44;;;;;;;31.53;4.00;;;10.90;78.80;;;;;;5045134;28;20474;-76
2022/09/21 03:14:12;;;;;;;6.50;3.40;;;10.80;78.80;;;;;;5046875;28;20477;-76
2022/09/21 03:16:40;;;;;;;21.33;4.07;;;10.80;78.80;;;;;;5044899;28;21341;-77
2022/09/21 03:19:11;;;;;;;8.10;4.13;;;10.80;78.90;;;;;;5047959;28;20482;-76
2022/09/21 03:21:39;;;;;;;8.10;3.67;;;10.80;78.90;;;;;;5045319;28;20464;-75
2022/09/21 03:24:11;;;;;;;17.00;3.30;;;10.70;78.90;;;;;;5045758;28;21058;-75
2022/09/21 03:26:39;;;;;;;36.83;3.33;;;10.70;78.90;;;;;;5052208;28;20506;-76
2022/09/21 03:29:07;;;;;;;20.23;3.00;;;10.70;78.80;;;;;;5043155;28;20544;-75
2022/09/21 03:31:35;;;;;;;17.67;3.13;;;10.60;78.70;;;;;;5043698;28;20505;-77
2022/09/21 03:34:03;;;;;;;12.33;2.83;;;10.60;78.80;;;;;;5049000;28;20973;-76
2022/09/21 03:36:32;;;;;;;6.00;3.57;;;10.50;78.90;;;;;;5046681;28;20479;-77
2022/09/21 03:39:00;;;;;;;12.53;3.50;;;10.50;79.00;;;;;;5040367;28;20837;-76
2022/09/21 03:41:28;;;;;;;11.30;3.53;;;10.50;79.10;;;;;;5042856;28;20455;-75
2022/09/21 03:43:56;;;;;;;11.50;3.50;;;10.50;79.10;;;;;;5048867;28;20467;-77
2022/09/21 03:46:24;;;;;;;12.77;3.33;;;10.50;79.10;;;;;;5043959;28;20520;-77
2022/09/21 03:48:52;;;;;;;15.53;3.63;;;10.40;79.00;;;;;;5055773;28;20463;-75
2022/09/21 03:51:21;;;;;;;45.77;7.53;;;10.40;79.00;;;;;;5043314;28;20502;-77
2022/09/21 03:53:50;;;;;;;14.63;3.30;;;10.40;79.00;;;;;;5044780;28;20984;-76
2022/09/21 03:56:18;;;;;;;12.83;2.73;;;10.40;79.00;;;;;;5042818;28;20504;-76
2022/09/21 03:58:46;;;;;;;5.70;2.90;;;10.40;79.00;;;;;;5045290;28;20486;-77
2022/09/21 04:01:14;;;;;;;8.93;2.70;;;10.40;79.00;;;;;;5043435;28;20524;-77
2022/09/21 04:03:42;;;;;;;5.80;2.80;;;10.30;79.00;;;;;;5047823;28;20470;-76
2022/09/21 04:06:11;;;;;;;11.10;3.00;;;10.30;79.00;;;;;;5041645;28;20680;-76
2022/09/21 04:08:39;;;;;;;6.25;3.33;;;10.30;79.00;;;;;;5044629;28;20965;-76
2022/09/21 04:11:11;;;;;;;4.90;2.70;;;10.30;79.10;;;;;;5044785;28;20232;-76
2022/09/21 04:13:41;;;;;;;7.33;3.10;;;10.30;79.30;;;;;;5046054;28;20470;-77
2022/09/21 04:16:09;;;;;;;26.47;4.17;;;10.30;79.30;;;;;;5042665;28;20485;-76
2022/09/21 04:18:37;;;;;;;8.03;2.10;;;10.30;79.30;;;;;;5046113;28;20541;-76
2022/09/21 04:21:06;;;;;;;8.07;2.57;;;10.30;79.00;;;;;;5045534;28;20486;-76
2022/09/21 04:23:34;;;;;;;14.23;2.50;;;10.20;79.00;;;;;;5045501;28;20517;-77
2022/09/21 04:26:02;;;;;;;5.63;2.27;;;10.20;79.00;;;;;;5043578;28;20439;-77
2022/09/21 04:28:31;;;;;;;10.90;2.80;;;10.20;79.10;;;;;;5044968;28;20863;-77
2022/09/21 04:30:59;;;;;;;4.50;2.30;;;10.10;79.10;;;;;;5044953;28;21021;-76
2022/09/21 04:33:27;;;;;;;6.93;2.10;;;10.10;79.10;;;;;;5044026;28;20481;-76
2022/09/21 04:35:55;;;;;;;4.50;2.10;;;10.10;79.10;;;;;;5044459;28;20482;-76
2022/09/21 04:38:23;;;;;;;5.23;2.50;;;10.10;79.10;;;;;;5042740;28;20467;-76
2022/09/21 04:40:56;;;;;;;10.40;3.30;;;10.10;79.10;;;;;;5046223;28;20523;-77
2022/09/21 04:43:23;;;;;;;10.23;4.33;;;10.10;79.10;;;;;;5041763;28;20476;-77
2022/09/21 04:45:53;;;;;;;9.00;3.77;;;10.10;79.00;;;;;;5043526;28;20764;-77
2022/09/21 04:48:21;;;;;;;12.40;3.60;;;10.00;78.90;;;;;;5043577;28;20454;-76
2022/09/21 04:50:49;;;;;;;6.13;3.20;;;10.00;78.90;;;;;;5046602;28;20458;-76
2022/09/21 04:53:17;;;;;;;6.30;3.47;;;10.00;79.00;;;;;;5043237;28;20581;-76
2022/09/21 04:55:45;;;;;;;26.43;3.93;;;10.00;79.10;;;;;;5042916;28;20486;-76
2022/09/21 04:58:13;;;;;;;16.53;3.50;;;10.00;79.10;;;;;;5044774;28;20479;-76
2022/09/21 05:00:41;;;;;;;7.20;3.07;;;10.00;79.00;;;;;;5044958;28;20964;-76
2022/09/21 05:03:10;;;;;;;5.57;2.80;;;10.00;79.00;;;;;;5045068;28;20498;-77
2022/09/21 05:05:38;;;;;;;21.77;3.43;;;10.00;79.10;;;;;;5043470;28;20513;-77
2022/09/21 05:08:06;;;;;;;36.83;3.30;;;10.00;79.20;;;;;;5046938;28;20451;-76
2022/09/21 05:10:34;;;;;;;5.77;2.03;;;10.00;78.90;;;;;;5043380;28;20450;-77
2022/09/21 05:13:02;;;;;;;12.77;2.20;;;10.00;78.90;;;;;;5045524;28;20600;-77
2022/09/21 05:15:29;;;;;;;6.40;2.40;;;9.90;78.80;;;;;;5048149;28;20929;-75
2022/09/21 05:17:57;;;;;;;10.00;2.80;;;9.90;78.90;;;;;;5042937;28;20475;-76
2022/09/21 05:20:27;;;;;;;6.57;2.37;;;9.80;79.00;;;;;;5043156;28;20513;-77
2022/09/21 05:22:54;;;;;;;5.00;2.40;;;9.80;78.90;;;;;;5046245;28;21132;-77
2022/09/21 05:25:22;;;;;;;5.80;2.23;;;9.70;78.90;;;;;;5044369;28;20537;-77
2022/09/21 05:27:50;;;;;;;4.10;2.00;;;9.70;79.10;;;;;;5048559;28;20505;-77
2022/09/21 05:30:19;;;;;;;16.03;2.27;;;9.70;79.20;;;;;;5048482;28;20508;-75
2022/09/21 05:32:55;;;;;;;14.87;2.70;;;9.70;79.30;;;;;;5045021;28;21220;-78
2022/09/21 05:35:32;;;;;;;5.20;2.27;;;9.70;79.10;;;;;;5047468;28;20506;-75
2022/09/21 05:38:07;;;;;;;4.87;2.33;;;9.80;79.30;;;;;;5048085;28;20458;-77
2022/09/21 05:40:35;;;;;;;5.10;2.23;;;9.80;79.30;;;;;;5045731;28;20485;-77
2022/09/21 05:43:04;;;;;;;4.33;2.00;;;9.80;79.40;;;;;;5048279;28;20485;-77
2022/09/21 05:45:32;;;;;;;5.10;2.13;;;9.90;79.50;;;;;;5049122;28;21027;-77
2022/09/21 05:48:09;;;;;;;5.63;2.80;;;9.90;79.40;;;;;;5045697;28;20479;-77
2022/09/21 05:50:48;;;;;;;4.50;2.10;;;9.90;79.30;;;;;;5048239;28;20507;-75
2022/09/21 05:53:38;;;;;;;16.97;2.97;;;10.00;79.30;;;;;;5046193;28;20581;-75
2022/09/21 05:56:14;;;;;;;6.37;2.50;;;10.00;79.20;;;;;;5061858;28;20880;-77
2022/09/21 05:58:52;;;;;;;5.10;2.40;;;10.00;79.20;;;;;;5044107;28;20474;-77
2022/09/21 06:01:28;;;;;;;6.23;2.63;;;10.00;79.20;;;;;;5051378;28;20494;-78
2022/09/21 06:03:58;;;;;;;18.60;3.20;;;10.00;79.20;;;;;;5046670;28;20477;-75
2022/09/21 06:06:27;;;;;;;8.83;3.27;;;10.00;79.10;;;;;;5048180;28;20450;-78
2022/09/21 06:08:55;;;;;;;4.70;2.27;;;10.00;79.10;;;;;;5049590;28;20510;-75
2022/09/21 06:11:23;;;;;;;8.00;2.63;;;10.00;79.20;;;;;;5048708;28;20520;-77
2022/09/21 06:13:50;;;;;;;13.33;2.77;;;10.00;79.20;;;;;;5047685;28;20518;-77
2022/09/21 06:16:18;;;;;;;5.93;2.20;;;10.00;79.20;;;;;;5048399;28;20501;-77
2022/09/21 06:18:46;;;;;;;6.60;2.90;;;10.00;79.20;;;;;;5046120;28;20528;-76
2022/09/21 06:21:14;;;;;;;5.47;2.53;;;10.00;79.20;;;;;;5049363;28;20581;-76
2022/09/21 06:23:43;;;;;;;5.90;2.97;;;10.00;79.30;;;;;;5049067;28;21354;-76
2022/09/21 06:26:11;;;;;;;11.83;3.07;;;10.10;79.30;;;;;;5047283;28;20491;-76
2022/09/21 06:28:39;;;;;;;14.23;3.13;;;10.10;79.50;;;;;;5048849;28;20457;-77
2022/09/21 06:31:07;;;;;;;9.23;3.13;;;10.10;79.20;;;;;;5050339;28;20947;-77
2022/09/21 06:33:36;;;;;;;9.90;3.70;;;10.10;79.00;;;;;;5046013;28;20839;-77
2022/09/21 06:36:04;;;;;;;8.03;3.90;;;10.00;78.90;;;;;;5046878;28;20986;-77
2022/09/21 06:38:34;;;;;;;10.03;3.67;;;10.00;79.10;;;;;;5046700;28;20504;-77
2022/09/21 06:41:04;;;;;;;7.47;3.33;;;10.00;79.20;;;;;;5047368;28;21008;-76
2022/09/21 06:43:33;;;;;;;7.73;3.80;;;10.00;79.50;;;;;;5046504;28;20610;-77
2022/09/21 06:46:02;;;;;;;11.70;3.07;;;10.10;79.60;;;;;;5046644;28;20556;-77
2022/09/21 06:48:32;;;;;;;20.20;3.43;;;10.10;79.30;;;;;;5046443;28;20458;-75
2022/09/21 06:51:02;;;;;;;21.63;5.00;;;10.10;79.20;;;;;;5035945;28;20535;-76
2022/09/21 06:53:31;;;;;;;9.03;3.47;;;10.10;79.30;;;;;;5045013;28;20507;-77
2022/09/21 06:56:05;;;;;;;11.90;2.83;;;10.10;79.20;;;;;;5041659;28;20467;-76
2022/09/21 06:58:34;;;;;;;8.20;2.70;;;10.10;79.20;;;;;;5046636;28;20485;-77
2022/09/21 07:01:07;;;;;;;10.13;4.00;;;10.10;79.20;;;;;;5047259;28;20519;-77
2022/09/21 07:03:35;;;;;;;7.80;2.60;;;10.10;79.30;;;;;;5046936;28;20574;-77
2022/09/21 07:06:04;;;;;;;5.20;2.33;;;10.10;79.30;;;;;;5045773;28;20485;-77
2022/09/21 07:08:32;;;;;;;7.53;2.70;;;10.10;79.30;;;;;;5048266;28;21233;-77
2022/09/21 07:11:22;;;;;;;10.27;3.80;;;10.10;79.40;;;;;;5036946;28;20471;-76
2022/09/21 07:13:51;;;;;;;9.60;3.93;;;10.10;79.40;;;;;;5043126;28;20883;-77
2022/09/21 07:16:20;;;;;;;6.43;3.07;;;10.20;79.40;;;;;;5041703;28;20480;-76
2022/09/21 07:18:48;;;;;;;8.07;3.83;;;10.20;79.40;;;;;;5050218;28;20520;-77
2022/09/21 07:21:16;;;;;;;11.60;3.47;;;10.20;79.40;;;;;;5043093;28;20486;-76
2022/09/21 07:23:44;;;;;;;23.50;4.20;;;10.20;79.30;;;;;;5042648;28;20470;-76
2022/09/21 07:26:13;;;;;;;9.17;6.30;;;10.20;79.40;;;;;;5047676;28;20541;-76
2022/09/21 07:28:43;;;;;;;10.70;5.33;;;10.20;79.30;;;;;;5045695;28;20542;-75
2022/09/21 07:31:13;;;;;;;6.37;3.90;;;10.20;79.40;;;;;;5044098;28;20447;-78
2022/09/21 07:33:42;;;;;;;6.70;3.37;;;10.20;79.50;;;;;;5042581;28;20489;-77
2022/09/21 07:36:11;;;;;;;5.80;3.03;;;10.20;79.80;;;;;;5047166;28;21596;-77
2022/09/21 07:38:41;;;;;;;5.90;2.50;;;10.30;79.90;;;;;;5044422;28;20999;-77
2022/09/21 07:41:10;;;;;;;8.97;2.60;;;10.40;80.00;;;;;;5045690;28;20579;-77
2022/09/21 07:43:39;;;;;;;5.63;2.77;;;10.50;80.10;;;;;;5045950;28;20505;-77
2022/09/21 07:46:10;;;;;;;6.03;3.33;;;10.60;80.10;;;;;;5045519;28;20522;-75
2022/09/21 07:48:38;;;;;;;5.97;3.37;;;10.60;80.00;;;;;;5044010;28;20498;-77
2022/09/21 07:51:08;;;;;;;6.30;3.63;;;10.70;80.00;;;;;;5043114;28;20443;-76
2022/09/21 07:53:36;;;;;;;8.50;3.90;;;10.70;80.00;;;;;;5044923;28;20479;-76
2022/09/21 07:56:07;;;;;;;6.17;3.70;;;10.80;80.00;;;;;;5049057;28;20504;-76
2022/09/21 08:01:23;;;;;;;6.80;3.67;;;10.80;80.00;;;;;;5042011;28;20517;-76
2022/09/21 08:03:52;;;;;;;8.57;4.07;;;10.90;80.00;;;;;;5047604;28;20491;-77
2022/09/21 08:06:21;;;;;;;9.07;4.33;;;10.90;80.10;;;;;;5045358;28;20560;-77
2022/09/21 08:08:51;;;;;;;11.40;4.77;;;11.00;80.20;;;;;;5048162;28;20959;-75
2022/09/21 08:11:25;;;;;;;35.47;6.70;;;11.10;80.20;;;;;;5048202;28;20940;-76
2022/09/21 08:13:55;;;;;;;35.70;7.27;;;11.10;80.30;;;;;;5045827;28;20513;-75
2022/09/21 08:16:25;;;;;;;13.63;5.30;;;11.20;80.30;;;;;;5044129;28;20517;-77
2022/09/21 08:18:53;;;;;;;7.80;4.30;;;11.20;80.20;;;;;;5046578;28;20504;-75
2022/09/21 08:21:21;;;;;;;12.07;4.80;;;11.30;80.30;;;;;;5044375;28;20506;-75
2022/09/21 08:23:49;;;;;;;8.70;4.80;;;11.40;80.30;;;;;;5046473;28;20474;-75
2022/09/21 08:26:19;;;;;;;11.50;4.77;;;11.50;80.30;;;;;;5046327;28;20475;-76
2022/09/21 08:28:48;;;;;;;5.73;3.50;;;11.50;80.30;;;;;;5046711;28;20443;-77
2022/09/21 08:31:18;;;;;;;7.07;3.90;;;11.60;80.20;;;;;;5048584;28;20455;-76
2022/09/21 08:33:48;;;;;;;10.07;4.20;;;11.60;80.40;;;;;;5045676;28;20475;-75
2022/09/21 08:36:17;;;;;;;6.70;4.00;;;11.70;80.20;;;;;;5044713;28;20450;-77
2022/09/21 08:38:45;;;;;;;7.50;4.70;;;11.70;80.20;;;;;;5040824;28;20467;-75
2022/09/21 08:41:18;;;;;;;8.80;4.90;;;11.70;80.10;;;;;;5048325;28;20478;-77
2022/09/21 08:43:51;;;;;;;7.73;4.70;;;11.70;80.00;;;;;;5033651;28;20487;-77
2022/09/21 08:46:22;;;;;;;6.10;4.03;;;11.70;80.10;;;;;;5044397;28;20509;-75
2022/09/21 08:49:00;;;;;;;7.90;4.87;;;11.70;80.10;;;;;;5043249;28;20509;-77
2022/09/21 08:51:32;;;;;;;9.10;5.37;;;11.80;80.20;;;;;;5042178;28;20575;-76
2022/09/21 08:54:06;;;;;;;8.57;5.23;;;11.80;80.30;;;;;;5031991;28;20482;-76
2022/09/21 08:56:35;;;;;;;8.50;5.07;;;11.80;80.20;;;;;;5047809;28;20447;-77
2022/09/21 08:59:23;;;;;;;9.20;6.13;;;11.90;80.30;;;;;;5044089;28;20564;-76
2022/09/21 09:01:58;;;;;;;9.50;5.80;;;11.90;80.30;;;;;;5049062;28;21183;-77
2022/09/21 09:04:43;;;;;;;8.17;5.37;;;12.00;80.40;;;;;;5042833;28;20471;-75
2022/09/21 09:07:22;;;;;;;9.20;5.40;;;12.00;80.40;;;;;;5050768;28;20465;-74
2022/09/21 09:10:06;;;;;;;11.67;6.13;;;12.10;80.50;;;;;;5050151;28;20963;-75
2022/09/21 09:12:49;;;;;;;9.00;5.30;;;12.20;80.40;;;;;;5048553;28;20446;-76
2022/09/21 09:15:44;;;;;;;10.23;6.77;;;12.20;80.50;;;;;;5047843;28;20446;-77
2022/09/21 09:18:18;;;;;;;12.20;6.43;;;12.20;80.60;;;;;;5041464;28;20892;-76
2022/09/21 09:20:53;;;;;;;9.60;5.10;;;12.30;80.80;;;;;;5046651;28;20471;-77
2022/09/21 09:23:24;;;;;;;8.97;5.13;;;12.40;80.90;;;;;;5045511;28;20470;-76
2022/09/21 09:25:59;;;;;;;8.00;4.57;;;12.50;81.00;;;;;;5050486;28;20450;-75
2022/09/21 09:28:33;;;;;;;9.27;5.30;;;12.60;80.90;;;;;;5049607;28;20512;-75
2022/09/21 09:31:05;;;;;;;9.00;5.40;;;12.70;80.90;;;;;;5048646;28;20522;-77
2022/09/21 09:33:48;;;;;;;7.30;5.10;;;12.80;80.80;;;;;;5050869;28;20478;-75
2022/09/21 09:36:17;;;;;;;7.70;5.60;;;12.80;80.90;;;;;;5045464;28;20859;-75
2022/09/21 09:39:12;;;;;;;9.50;5.90;;;12.90;80.90;;;;;;5047345;28;20885;-75
2022/09/21 09:42:15;;;;;;;8.30;5.10;;;13.00;80.90;;;;;;5046782;28;20509;-76
2022/09/21 09:45:22;;;;;;;14.40;6.10;;;13.00;80.90;;;;;;5031925;28;20593;-76
2022/09/21 09:48:05;;;;;;;21.03;5.67;;;13.10;80.90;;;;;;5029800;28;20463;-76
2022/09/21 09:50:35;;;;;;;13.33;6.57;;;13.10;81.00;;;;;;5048637;28;20451;-77
2022/09/21 09:53:09;;;;;;;12.23;6.30;;;13.20;81.10;;;;;;5051802;28;20461;-76
2022/09/21 09:55:39;;;;;;;13.40;6.20;;;13.20;81.10;;;;;;5047054;28;20459;-76
2022/09/21 09:58:16;;;;;;;9.90;5.20;;;13.40;81.10;;;;;;5046262;28;20455;-76
2022/09/21 10:00:45;;;;;;;8.60;5.00;;;13.40;81.00;;;;;;5043056;28;20490;-76
2022/09/21 10:03:18;;;;;;;11.80;6.30;;;13.40;81.00;;;;;;5049303;28;20507;-77
2022/09/21 10:05:46;;;;;;;13.90;5.63;;;13.50;80.90;;;;;;5045778;28;20485;-76
2022/09/21 10:08:42;;;;;;;12.90;5.47;;;13.50;80.80;;;;;;5048809;28;20443;-80
2022/09/21 10:11:11;;;;;;;11.83;5.50;;;13.50;80.70;;;;;;5046745;28;20542;-77
2022/09/21 10:13:41;;;;;;;9.00;4.93;;;13.40;80.80;;;;;;5050077;28;20520;-77
2022/09/21 10:16:13;;;;;;;8.80;4.90;;;13.40;80.80;;;;;;5043228;28;20455;-77
2022/09/21 10:18:47;;;;;;;8.33;4.20;;;13.40;80.80;;;;;;5048428;28;20537;-77
2022/09/21 10:21:21;;;;;;;9.17;5.40;;;13.30;80.90;;;;;;5046890;28;20511;-77
2022/09/21 10:23:52;;;;;;;7.63;4.70;;;13.40;81.00;;;;;;5048857;28;20478;-77
2022/09/21 10:26:21;;;;;;;9.40;5.40;;;13.40;81.00;;;;;;5044691;28;20455;-76
2022/09/21 10:28:57;;;;;;;6.20;4.07;;;13.40;81.00;;;;;;5045733;28;20463;-76
2022/09/21 10:31:26;;;;;;;7.47;4.40;;;13.40;81.00;;;;;;5046141;28;20465;-77
2022/09/21 10:34:06;;;;;;;5.97;3.97;;;13.40;81.00;;;;;;5046909;28;20470;-77
2022/09/21 10:36:36;;;;;;;7.60;5.20;;;13.40;81.10;;;;;;5051217;28;20459;-77
2022/09/21 10:39:20;;;;;;;7.70;4.07;;;13.40;81.10;;;;;;5046345;28;20468;-76
2022/09/21 10:41:56;;;;;;;6.13;3.30;;;13.50;81.10;;;;;;5048500;28;20474;-76
2022/09/21 10:44:28;;;;;;;17.50;4.27;;;13.40;81.20;;;;;;5043031;28;20479;-77
2022/09/21 10:46:56;;;;;;;9.33;3.10;;;13.50;81.20;;;;;;5054066;28;21274;-77
2022/09/21 10:49:27;;;;;;;6.67;2.93;;;13.50;81.10;;;;;;5051159;28;20542;-77
2022/09/21 10:51:58;;;;;;;7.10;3.33;;;13.50;81.00;;;;;;5054123;28;20450;-77
2022/09/21 10:54:30;;;;;;;7.70;4.20;;;13.50;81.00;;;;;;5044022;28;20482;-77
2022/09/21 10:57:03;;;;;;;7.10;3.47;;;13.50;81.00;;;;;;5051196;28;20506;-77
2022/09/21 10:59:32;;;;;;;6.93;3.20;;;13.50;81.00;;;;;;5047321;28;20454;-77
2022/09/21 11:02:02;;;;;;;6.37;3.07;;;13.60;81.00;;;;;;5045467;28;20553;-77
2022/09/21 11:04:37;;;;;;;5.37;2.10;;;13.60;81.00;;;;;;5061845;28;20502;-77
2022/09/21 11:07:13;;;;;;;16.60;3.77;;;13.60;80.90;;;;;;5049748;28;20477;-77
2022/09/21 11:09:50;;;;;;;7.50;3.17;;;13.60;80.80;;;;;;5045915;28;20451;-78
2022/09/21 11:12:31;;;;;;;6.10;2.60;;;13.70;80.80;;;;;;5044849;28;21030;-77
2022/09/21 11:15:06;;;;;;;5.83;2.67;;;13.70;80.70;;;;;;5046884;28;20540;-76
2022/09/21 11:17:39;;;;;;;9.03;2.80;;;13.80;80.40;;;;;;5044272;28;20508;-77
2022/09/21 11:20:21;;;;;;;6.47;2.70;;;13.80;80.30;;;;;;5045066;28;20462;-77
2022/09/21 11:22:55;;;;;;;22.10;4.13;;;13.80;80.20;;;;;;5040898;28;20483;-78
2022/09/21 11:25:36;;;;;;;5.77;2.50;;;13.90;80.10;;;;;;5039083;28;20480;-77
2022/09/21 11:28:13;;;;;;;5.80;2.37;;;13.90;79.90;;;;;;5051988;28;20508;-76
2022/09/21 11:30:59;;;;;;;5.70;2.43;;;14.00;79.70;;;;;;5039481;28;21043;-78
2022/09/21 11:33:45;;;;;;;5.73;2.17;;;14.00;79.50;;;;;;5042926;28;20525;-78
2022/09/21 11:36:21;;;;;;;6.93;3.20;;;14.10;79.50;;;;;;5045208;28;20460;-78
2022/09/21 11:38:57;;;;;;;4.90;2.20;;;14.20;79.20;;;;;;5043420;28;20452;-76
2022/09/21 11:41:53;;;;;;;8.37;2.30;;;14.20;79.00;;;;;;5045877;28;20553;-77
2022/09/21 11:44:35;;;;;;;5.10;2.10;;;14.30;78.60;;;;;;5041823;28;20471;-77
2022/09/21 11:47:16;;;;;;;5.00;2.00;;;14.30;77.80;;;;;;5037535;28;20467;-78
2022/09/21 11:50:02;;;;;;;5.20;2.17;;;14.40;78.20;;;;;;5046462;28;20948;-77
2022/09/21 11:53:02;;;;;;;6.63;2.90;;;14.40;78.10;;;;;;5045739;28;21096;-77
2022/09/21 11:55:58;;;;;;;6.63;2.20;;;14.50;77.50;;;;;;5044981;28;20447;-77
2022/09/21 11:58:37;;;;;;;4.87;1.90;;;14.50;77.20;;;;;;5036583;28;20473;-78
2022/09/21 12:01:17;;;;;;;6.60;1.90;;;14.50;77.20;;;;;;5046184;28;20516;-77
2022/09/21 12:04:02;;;;;;;4.40;1.80;;;14.60;77.00;;;;;;5044348;28;21073;-77
2022/09/21 12:06:40;;;;;;;5.03;1.70;;;14.60;77.00;;;;;;5045012;28;20488;-77
2022/09/21 12:09:44;;;;;;;7.60;2.20;;;14.70;76.60;;;;;;5043500;28;20509;-77
2022/09/21 12:12:17;;;;;;;5.70;1.70;;;14.80;76.30;;;;;;5043324;28;20451;-77
2022/09/21 12:14:54;;;;;;;11.10;5.43;;;14.80;75.80;;;;;;5046003;28;20467;-77
2022/09/21 12:17:29;;;;;;;4.73;1.50;;;14.90;75.00;;;;;;5055963;28;20991;-77
2022/09/21 12:20:12;;;;;;;5.10;1.97;;;14.90;74.10;;;;;;5042385;28;20474;-77
2022/09/21 12:22:42;;;;;;;9.33;4.50;;;15.00;74.40;;;;;;5046975;28;20515;-77
2022/09/21 12:25:15;;;;;;;5.00;1.77;;;15.00;74.20;;;;;;5042566;28;21287;-77
2022/09/21 12:27:48;;;;;;;7.23;2.10;;;15.10;73.80;;;;;;5051187;28;20465;-77
2022/09/21 12:30:20;;;;;;;4.57;1.60;;;15.10;73.40;;;;;;5042537;28;20543;-77
2022/09/21 12:32:56;;;;;;;4.87;1.70;;;15.10;72.70;;;;;;5045981;28;20451;-78
2022/09/21 12:35:30;;;;;;;5.50;1.50;;;15.10;72.30;;;;;;5047502;28;20454;-77
2022/09/21 12:38:04;;;;;;;4.53;1.40;;;15.20;72.60;;;;;;5048791;28;20479;-77
2022/09/21 12:40:38;;;;;;;4.97;1.50;;;15.20;72.60;;;;;;5049593;28;20451;-77
2022/09/21 12:43:16;;;;;;;5.50;1.47;;;15.30;72.30;;;;;;5048214;28;20479;-77
2022/09/21 12:45:53;;;;;;;8.93;1.80;;;15.30;71.60;;;;;;5046681;28;20457;-77
2022/09/21 12:48:30;;;;;;;4.13;1.20;;;15.30;71.10;;;;;;5048361;28;20455;-76
2022/09/21 12:51:04;;;;;;;5.20;1.33;;;15.40;71.00;;;;;;5050249;28;20463;-76
2022/09/21 12:53:37;;;;;;;4.80;1.37;;;15.40;70.60;;;;;;5047992;28;20470;-76
2022/09/21 12:56:08;;;;;;;5.37;1.47;;;15.50;70.40;;;;;;5041001;28;20528;-77
2022/09/21 12:58:50;;;;;;;3.87;1.17;;;15.50;69.70;;;;;;5045815;28;20448;-78
2022/09/21 13:01:29;;;;;;;6.90;2.07;;;15.50;69.30;;;;;;5047560;28;20486;-78
2022/09/21 13:04:11;;;;;;;9.17;1.47;;;15.60;69.00;;;;;;5045269;28;20525;-76
2022/09/21 13:07:02;;;;;;;12.00;2.03;;;15.60;68.80;;;;;;5048288;28;20455;-76
2022/09/21 13:09:31;;;;;;;4.07;1.37;;;15.60;68.10;;;;;;5048805;28;20450;-77
2022/09/21 13:12:03;;;;;;;4.23;1.47;;;15.60;67.60;;;;;;5048326;28;20459;-76
2022/09/21 13:14:35;;;;;;;6.40;1.30;;;15.60;67.20;;;;;;5047888;28;21109;-77
2022/09/21 13:17:05;;;;;;;3.60;1.20;;;15.60;67.30;;;;;;5046922;28;20570;-78